Rechercher aéroport 
image banner adimage banner ad
image banner ad

LI-SS16 - Pista Vasa Costa Paradiso

Situé à Trinit, Italy

ICAO - , IATA -

Données fournies par Airmate  

Information générale

Coordonnées: N41°2'48" E8°59'51"
Élévation : 600 feet MSL.
 
Voir autres Aéroports à Sardinia

Données opérationnelles

Accessible au public
Heure actuelle UTC:
Heure actuelle locale:
Météo à : LIEO - Olbia/Costa Smeralda ( 47 km )
METAR: LIEO 261220Z 25036KT 9999 SCT025 20/06 Q1004
TAF: TAF LIEO 261100Z 2612/2712 26025G35KT 9999 SCT030 TEMPO 2700/2709 TSRA
Voir NOTAMs / SUP AIP / TFR affectant cet aéroport [VIEW]
Fréquences de communication: [VIEW]

Pistes:

Identifiant RWYQFULongueur (ft)Largeur (ft)SurfaceLDA (ft)
09131282GRASS
27131282GRASS

Coordonnées de l'aéroport

Adresse: Trinit Italy

Vue satellite de LI-SS16